sensor_id;sensor_type;location;lat;lon;timestamp;temperature;humidity
19805;DHT22;10062;51.052;13.756;2023-05-09T00:00:35;10.80;99.90
19805;DHT22;10062;51.052;13.756;2023-05-09T00:03:07;10.90;1.00
19805;DHT22;10062;51.052;13.756;2023-05-09T00:05:39;10.80;1.00
19805;DHT22;10062;51.052;13.756;2023-05-09T00:08:11;10.80;1.00
19805;DHT22;10062;51.052;13.756;2023-05-09T00:10:43;10.70;1.00
19805;DHT22;10062;51.052;13.756;2023-05-09T00:13:14;10.70;1.00
19805;DHT22;10062;51.052;13.756;2023-05-09T00:15:48;10.50;1.00
19805;DHT22;10062;51.052;13.756;2023-05-09T00:18:23;10.50;1.00
19805;DHT22;10062;51.052;13.756;2023-05-09T00:20:54;10.50;1.00
19805;DHT22;10062;51.052;13.756;2023-05-09T00:23:27;10.60;1.00
19805;DHT22;10062;51.052;13.756;2023-05-09T00:25:58;10.30;1.00
19805;DHT22;10062;51.052;13.756;2023-05-09T00:28:30;10.30;1.00
19805;DHT22;10062;51.052;13.756;2023-05-09T00:31:04;10.30;1.00
19805;DHT22;10062;51.052;13.756;2023-05-09T00:33:36;10.30;1.00
19805;DHT22;10062;51.052;13.756;2023-05-09T00:36:08;10.20;1.00
19805;DHT22;10062;51.052;13.756;2023-05-09T00:38:39;10.30;1.00
19805;DHT22;10062;51.052;13.756;2023-05-09T00:41:11;10.30;1.00
19805;DHT22;10062;51.052;13.756;2023-05-09T00:46:16;10.10;1.00
19805;DHT22;10062;51.052;13.756;2023-05-09T00:48:48;10.20;1.00
19805;DHT22;10062;51.052;13.756;2023-05-09T00:51:22;10.20;1.00
19805;DHT22;10062;51.052;13.756;2023-05-09T00:56:26;10.10;1.00
19805;DHT22;10062;51.052;13.756;2023-05-09T00:58:58;10.00;1.00
19805;DHT22;10062;51.052;13.756;2023-05-09T01:01:31;9.90;1.00
19805;DHT22;10062;51.052;13.756;2023-05-09T01:04:03;9.70;5.40
19805;DHT22;10062;51.052;13.756;2023-05-09T01:06:41;9.70;91.80
19805;DHT22;10062;51.052;13.756;2023-05-09T01:09:19;9.80;1.00
19805;DHT22;10062;51.052;13.756;2023-05-09T01:12:01;9.90;1.00
19805;DHT22;10062;51.052;13.756;2023-05-09T01:14:39;9.70;1.00
19805;DHT22;10062;51.052;13.756;2023-05-09T01:17:33;9.80;1.00
19805;DHT22;10062;51.052;13.756;2023-05-09T01:20:13;9.90;1.00
19805;DHT22;10062;51.052;13.756;2023-05-09T01:22:51;10.00;1.00
19805;DHT22;10062;51.052;13.756;2023-05-09T01:25:37;9.90;1.00
19805;DHT22;10062;51.052;13.756;2023-05-09T01:28:30;10.00;1.00
19805;DHT22;10062;51.052;13.756;2023-05-09T01:31:07;9.70;1.00
19805;DHT22;10062;51.052;13.756;2023-05-09T01:33:41;9.60;1.00
19805;DHT22;10062;51.052;13.756;2023-05-09T01:36:16;9.50;99.90
19805;DHT22;10062;51.052;13.756;2023-05-09T01:38:51;9.50;99.90
19805;DHT22;10062;51.052;13.756;2023-05-09T01:41:23;9.50;99.90
19805;DHT22;10062;51.052;13.756;2023-05-09T01:43:56;9.30;99.90
19805;DHT22;10062;51.052;13.756;2023-05-09T01:46:31;9.40;99.90
19805;DHT22;10062;51.052;13.756;2023-05-09T01:49:04;9.20;99.90
19805;DHT22;10062;51.052;13.756;2023-05-09T01:51:40;9.10;1.00
19805;DHT22;10062;51.052;13.756;2023-05-09T01:54:13;9.10;1.00
19805;DHT22;10062;51.052;13.756;2023-05-09T01:56:45;9.30;1.00
19805;DHT22;10062;51.052;13.756;2023-05-09T01:59:18;9.20;1.00
19805;DHT22;10062;51.052;13.756;2023-05-09T02:01:52;9.10;1.00
19805;DHT22;10062;51.052;13.756;2023-05-09T02:04:26;9.20;1.00
19805;DHT22;10062;51.052;13.756;2023-05-09T02:06:59;9.20;1.00
19805;DHT22;10062;51.052;13.756;2023-05-09T02:09:31;9.20;99.90
19805;DHT22;10062;51.052;13.756;2023-05-09T02:17:09;8.90;1.00
19805;DHT22;10062;51.052;13.756;2023-05-09T02:19:46;8.90;1.00
19805;DHT22;10062;51.052;13.756;2023-05-09T02:22:18;8.60;1.00
19805;DHT22;10062;51.052;13.756;2023-05-09T02:24:50;9.00;1.00
19805;DHT22;10062;51.052;13.756;2023-05-09T02:29:55;8.80;1.00
19805;DHT22;10062;51.052;13.756;2023-05-09T02:32:33;8.70;1.00
19805;DHT22;10062;51.052;13.756;2023-05-09T02:35:07;8.80;1.00
19805;DHT22;10062;51.052;13.756;2023-05-09T02:37:40;8.80;1.00
19805;DHT22;10062;51.052;13.756;2023-05-09T02:40:12;8.70;1.00
19805;DHT22;10062;51.052;13.756;2023-05-09T02:45:16;8.80;1.00
19805;DHT22;10062;51.052;13.756;2023-05-09T02:47:49;8.80;1.00
19805;DHT22;10062;51.052;13.756;2023-05-09T02:50:20;8.90;1.00
19805;DHT22;10062;51.052;13.756;2023-05-09T02:52:52;8.90;1.00
19805;DHT22;10062;51.052;13.756;2023-05-09T02:55:24;8.90;1.00
19805;DHT22;10062;51.052;13.756;2023-05-09T03:00:33;8.70;1.00
19805;DHT22;10062;51.052;13.756;2023-05-09T03:03:07;8.70;1.00
19805;DHT22;10062;51.052;13.756;2023-05-09T03:05:38;8.70;1.00
19805;DHT22;10062;51.052;13.756;2023-05-09T03:13:14;8.30;99.90
19805;DHT22;10062;51.052;13.756;2023-05-09T03:15:46;8.50;99.90
19805;DHT22;10062;51.052;13.756;2023-05-09T03:18:19;8.30;99.90
19805;DHT22;10062;51.052;13.756;2023-05-09T03:20:50;8.20;99.90
19805;DHT22;10062;51.052;13.756;2023-05-09T03:25:56;8.10;99.90
19805;DHT22;10062;51.052;13.756;2023-05-09T03:28:28;8.00;1.00
19805;DHT22;10062;51.052;13.756;2023-05-09T03:33:37;7.90;1.00
19805;DHT22;10062;51.052;13.756;2023-05-09T03:36:09;7.90;1.00
19805;DHT22;10062;51.052;13.756;2023-05-09T03:41:16;8.00;1.00
19805;DHT22;10062;51.052;13.756;2023-05-09T03:43:50;8.10;1.00
19805;DHT22;10062;51.052;13.756;2023-05-09T03:48:55;8.30;1.00
19805;DHT22;10062;51.052;13.756;2023-05-09T03:54:00;8.40;99.90
19805;DHT22;10062;51.052;13.756;2023-05-09T03:56:32;8.30;99.90
19805;DHT22;10062;51.052;13.756;2023-05-09T03:59:04;8.30;99.90
19805;DHT22;10062;51.052;13.756;2023-05-09T04:04:11;8.20;99.90
19805;DHT22;10062;51.052;13.756;2023-05-09T04:06:43;8.30;99.90
19805;DHT22;10062;51.052;13.756;2023-05-09T04:11:49;8.40;1.00
19805;DHT22;10062;51.052;13.756;2023-05-09T04:14:21;8.20;99.90
19805;DHT22;10062;51.052;13.756;2023-05-09T04:16:52;8.20;99.90
19805;DHT22;10062;51.052;13.756;2023-05-09T04:19:26;8.30;99.90
19805;DHT22;10062;51.052;13.756;2023-05-09T04:21:58;8.30;1.00
19805;DHT22;10062;51.052;13.756;2023-05-09T04:27:03;8.40;1.00
19805;DHT22;10062;51.052;13.756;2023-05-09T04:34:43;8.60;1.00
19805;DHT22;10062;51.052;13.756;2023-05-09T04:37:20;8.50;1.00
19805;DHT22;10062;51.052;13.756;2023-05-09T04:39:52;8.60;1.00
19805;DHT22;10062;51.052;13.756;2023-05-09T04:42:30;8.70;1.00
19805;DHT22;10062;51.052;13.756;2023-05-09T04:45:03;8.70;1.00
19805;DHT22;10062;51.052;13.756;2023-05-09T04:47:36;8.80;1.00
19805;DHT22;10062;51.052;13.756;2023-05-09T04:50:10;9.00;99.90
19805;DHT22;10062;51.052;13.756;2023-05-09T05:00:21;9.10;44.80
19805;DHT22;10062;51.052;13.756;2023-05-09T05:05:30;8.90;54.30
19805;DHT22;10062;51.052;13.756;2023-05-09T05:08:02;9.00;99.90
19805;DHT22;10062;51.052;13.756;2023-05-09T05:10:38;9.00;99.90
19805;DHT22;10062;51.052;13.756;2023-05-09T05:13:14;9.00;92.50
19805;DHT22;10062;51.052;13.756;2023-05-09T05:23:29;9.50;1.00
19805;DHT22;10062;51.052;13.756;2023-05-09T05:31:08;9.70;1.00
19805;DHT22;10062;51.052;13.756;2023-05-09T05:36:13;9.80;1.00
19805;DHT22;10062;51.052;13.756;2023-05-09T05:41:18;10.00;1.00
19805;DHT22;10062;51.052;13.756;2023-05-09T05:43:50;10.00;1.00
19805;DHT22;10062;51.052;13.756;2023-05-09T05:48:54;9.90;1.00
19805;DHT22;10062;51.052;13.756;2023-05-09T05:51:28;10.00;1.00
19805;DHT22;10062;51.052;13.756;2023-05-09T05:54:00;10.00;1.00
19805;DHT22;10062;51.052;13.756;2023-05-09T05:59:04;10.30;1.00
19805;DHT22;10062;51.052;13.756;2023-05-09T06:01:36;10.30;1.00
19805;DHT22;10062;51.052;13.756;2023-05-09T06:04:08;10.50;1.00
19805;DHT22;10062;51.052;13.756;2023-05-09T06:06:41;10.60;1.00
19805;DHT22;10062;51.052;13.756;2023-05-09T06:09:13;10.70;1.00
19805;DHT22;10062;51.052;13.756;2023-05-09T06:11:44;10.80;1.00
19805;DHT22;10062;51.052;13.756;2023-05-09T06:16:48;11.00;1.00
19805;DHT22;10062;51.052;13.756;2023-05-09T06:19:21;11.10;1.00
19805;DHT22;10062;51.052;13.756;2023-05-09T06:21:54;11.20;1.00
19805;DHT22;10062;51.052;13.756;2023-05-09T06:24:26;11.30;99.90
19805;DHT22;10062;51.052;13.756;2023-05-09T06:26:57;11.30;99.90
19805;DHT22;10062;51.052;13.756;2023-05-09T06:29:29;11.50;99.90
19805;DHT22;10062;51.052;13.756;2023-05-09T06:34:33;11.80;99.90
19805;DHT22;10062;51.052;13.756;2023-05-09T06:37:05;11.90;99.90
19805;DHT22;10062;51.052;13.756;2023-05-09T06:42:09;12.30;99.90
19805;DHT22;10062;51.052;13.756;2023-05-09T06:44:43;12.30;99.90
19805;DHT22;10062;51.052;13.756;2023-05-09T06:47:14;12.30;99.90
19805;DHT22;10062;51.052;13.756;2023-05-09T06:49:46;12.60;99.90
19805;DHT22;10062;51.052;13.756;2023-05-09T06:52:19;12.90;99.90
19805;DHT22;10062;51.052;13.756;2023-05-09T06:54:51;12.90;79.20
19805;DHT22;10062;51.052;13.756;2023-05-09T06:59:55;11.00;98.20
19805;DHT22;10062;51.052;13.756;2023-05-09T07:02:27;13.60;92.10
19805;DHT22;10062;51.052;13.756;2023-05-09T07:04:59;13.30;23.50
19805;DHT22;10062;51.052;13.756;2023-05-09T07:07:32;13.00;1.00
19805;DHT22;10062;51.052;13.756;2023-05-09T07:10:04;13.10;1.00
19805;DHT22;10062;51.052;13.756;2023-05-09T07:12:36;13.00;1.00
19805;DHT22;10062;51.052;13.756;2023-05-09T07:15:09;15.50;1.00
19805;DHT22;10062;51.052;13.756;2023-05-09T07:17:40;13.50;1.00
19805;DHT22;10062;51.052;13.756;2023-05-09T07:20:12;14.10;1.00
19805;DHT22;10062;51.052;13.756;2023-05-09T07:22:45;14.20;1.00
19805;DHT22;10062;51.052;13.756;2023-05-09T07:27:49;14.80;1.00
19805;DHT22;10062;51.052;13.756;2023-05-09T07:30:21;15.30;1.00
19805;DHT22;10062;51.052;13.756;2023-05-09T07:32:52;15.80;1.00
19805;DHT22;10062;51.052;13.756;2023-05-09T07:35:24;16.40;1.00
19805;DHT22;10062;51.052;13.756;2023-05-09T07:37:57;16.90;1.00
19805;DHT22;10062;51.052;13.756;2023-05-09T07:40:28;17.80;1.00
19805;DHT22;10062;51.052;13.756;2023-05-09T07:43:01;18.10;1.00
19805;DHT22;10062;51.052;13.756;2023-05-09T07:45:32;18.50;1.00
19805;DHT22;10062;51.052;13.756;2023-05-09T07:48:05;18.50;1.00
19805;DHT22;10062;51.052;13.756;2023-05-09T07:50:36;17.60;1.00
19805;DHT22;10062;51.052;13.756;2023-05-09T07:53:09;15.90;1.00
19805;DHT22;10062;51.052;13.756;2023-05-09T07:55:41;15.30;1.00
19805;DHT22;10062;51.052;13.756;2023-05-09T07:58:14;15.50;1.00
19805;DHT22;10062;51.052;13.756;2023-05-09T08:00:46;15.40;1.00
19805;DHT22;10062;51.052;13.756;2023-05-09T08:03:17;15.70;1.00
19805;DHT22;10062;51.052;13.756;2023-05-09T08:05:52;16.90;1.00
19805;DHT22;10062;51.052;13.756;2023-05-09T08:08:25;16.90;1.00
19805;DHT22;10062;51.052;13.756;2023-05-09T08:10:57;17.40;1.00
19805;DHT22;10062;51.052;13.756;2023-05-09T08:13:29;17.90;1.00
19805;DHT22;10062;51.052;13.756;2023-05-09T08:16:01;18.20;1.00
19805;DHT22;10062;51.052;13.756;2023-05-09T08:18:34;18.10;1.00
19805;DHT22;10062;51.052;13.756;2023-05-09T08:21:05;18.70;1.00
19805;DHT22;10062;51.052;13.756;2023-05-09T08:23:38;18.80;1.00
19805;DHT22;10062;51.052;13.756;2023-05-09T08:26:10;19.10;1.00
19805;DHT22;10062;51.052;13.756;2023-05-09T08:28:42;18.50;1.00
19805;DHT22;10062;51.052;13.756;2023-05-09T08:31:14;20.00;1.00
19805;DHT22;10062;51.052;13.756;2023-05-09T08:33:45;20.20;1.00
19805;DHT22;10062;51.052;13.756;2023-05-09T08:36:17;20.60;1.00
19805;DHT22;10062;51.052;13.756;2023-05-09T08:38:50;21.00;1.00
19805;DHT22;10062;51.052;13.756;2023-05-09T08:41:24;22.90;1.00
19805;DHT22;10062;51.052;13.756;2023-05-09T08:43:57;23.10;1.00
19805;DHT22;10062;51.052;13.756;2023-05-09T08:46:33;21.70;1.00
19805;DHT22;10062;51.052;13.756;2023-05-09T08:49:06;23.20;1.00
19805;DHT22;10062;51.052;13.756;2023-05-09T08:51:39;23.70;1.00
19805;DHT22;10062;51.052;13.756;2023-05-09T08:54:12;25.80;1.00
19805;DHT22;10062;51.052;13.756;2023-05-09T08:56:44;25.30;1.00
19805;DHT22;10062;51.052;13.756;2023-05-09T08:59:17;26.30;1.00
19805;DHT22;10062;51.052;13.756;2023-05-09T09:01:49;28.40;1.00
19805;DHT22;10062;51.052;13.756;2023-05-09T09:04:21;30.30;1.00
19805;DHT22;10062;51.052;13.756;2023-05-09T09:06:53;32.20;1.00
19805;DHT22;10062;51.052;13.756;2023-05-09T09:09:27;32.50;1.00
19805;DHT22;10062;51.052;13.756;2023-05-09T09:11:59;32.20;1.00
19805;DHT22;10062;51.052;13.756;2023-05-09T09:14:31;32.70;1.00
19805;DHT22;10062;51.052;13.756;2023-05-09T09:17:07;33.70;1.00
19805;DHT22;10062;51.052;13.756;2023-05-09T09:19:39;35.80;1.00
19805;DHT22;10062;51.052;13.756;2023-05-09T09:22:17;36.10;1.00
19805;DHT22;10062;51.052;13.756;2023-05-09T09:24:50;37.30;1.00
19805;DHT22;10062;51.052;13.756;2023-05-09T09:27:22;36.60;1.00
19805;DHT22;10062;51.052;13.756;2023-05-09T09:29:53;36.50;1.00
19805;DHT22;10062;51.052;13.756;2023-05-09T09:32:32;36.40;1.00
19805;DHT22;10062;51.052;13.756;2023-05-09T09:35:04;36.10;1.00
19805;DHT22;10062;51.052;13.756;2023-05-09T09:37:38;38.00;1.00
19805;DHT22;10062;51.052;13.756;2023-05-09T09:40:12;35.20;1.00
19805;DHT22;10062;51.052;13.756;2023-05-09T09:42:45;35.10;1.00
19805;DHT22;10062;51.052;13.756;2023-05-09T09:45:18;36.80;1.00
19805;DHT22;10062;51.052;13.756;2023-05-09T09:47:50;37.30;1.00
19805;DHT22;10062;51.052;13.756;2023-05-09T09:50:23;38.90;1.00
19805;DHT22;10062;51.052;13.756;2023-05-09T09:52:55;40.30;1.00
19805;DHT22;10062;51.052;13.756;2023-05-09T09:55:28;41.30;1.00
19805;DHT22;10062;51.052;13.756;2023-05-09T09:58:00;40.20;1.00
19805;DHT22;10062;51.052;13.756;2023-05-09T10:00:32;39.90;1.00
19805;DHT22;10062;51.052;13.756;2023-05-09T10:03:03;40.10;1.00
19805;DHT22;10062;51.052;13.756;2023-05-09T10:05:35;38.70;1.00
19805;DHT22;10062;51.052;13.756;2023-05-09T10:08:10;40.50;1.00
19805;DHT22;10062;51.052;13.756;2023-05-09T10:10:43;41.20;1.00
19805;DHT22;10062;51.052;13.756;2023-05-09T10:13:15;38.70;1.00
19805;DHT22;10062;51.052;13.756;2023-05-09T10:15:47;39.70;1.00
19805;DHT22;10062;51.052;13.756;2023-05-09T10:18:22;39.00;1.00
19805;DHT22;10062;51.052;13.756;2023-05-09T10:20:56;40.00;1.00
19805;DHT22;10062;51.052;13.756;2023-05-09T10:23:32;42.40;1.00
19805;DHT22;10062;51.052;13.756;2023-05-09T10:26:13;39.50;1.00
19805;DHT22;10062;51.052;13.756;2023-05-09T10:28:47;39.00;1.00
19805;DHT22;10062;51.052;13.756;2023-05-09T10:31:22;41.90;1.00
19805;DHT22;10062;51.052;13.756;2023-05-09T10:33:56;40.50;1.00
19805;DHT22;10062;51.052;13.756;2023-05-09T10:36:30;39.40;1.00
19805;DHT22;10062;51.052;13.756;2023-05-09T10:39:02;37.20;1.00
19805;DHT22;10062;51.052;13.756;2023-05-09T10:41:35;36.90;1.00
19805;DHT22;10062;51.052;13.756;2023-05-09T10:44:07;37.90;1.00
19805;DHT22;10062;51.052;13.756;2023-05-09T10:46:39;34.20;1.00
19805;DHT22;10062;51.052;13.756;2023-05-09T10:49:11;37.10;1.00
19805;DHT22;10062;51.052;13.756;2023-05-09T10:51:43;40.30;1.00
19805;DHT22;10062;51.052;13.756;2023-05-09T10:54:25;42.20;1.00
19805;DHT22;10062;51.052;13.756;2023-05-09T10:56:59;38.00;1.00
19805;DHT22;10062;51.052;13.756;2023-05-09T10:59:32;36.20;1.00
19805;DHT22;10062;51.052;13.756;2023-05-09T11:02:06;36.90;1.00
19805;DHT22;10062;51.052;13.756;2023-05-09T11:04:41;37.90;1.00
19805;DHT22;10062;51.052;13.756;2023-05-09T11:07:23;38.80;1.00
19805;DHT22;10062;51.052;13.756;2023-05-09T11:10:06;40.80;1.00
19805;DHT22;10062;51.052;13.756;2023-05-09T11:12:54;37.20;1.00
19805;DHT22;10062;51.052;13.756;2023-05-09T11:15:26;32.80;1.00
19805;DHT22;10062;51.052;13.756;2023-05-09T11:18:08;30.90;1.00
19805;DHT22;10062;51.052;13.756;2023-05-09T11:20:45;31.80;1.00
19805;DHT22;10062;51.052;13.756;2023-05-09T11:23:19;31.40;1.00
19805;DHT22;10062;51.052;13.756;2023-05-09T11:25:52;30.60;1.00
19805;DHT22;10062;51.052;13.756;2023-05-09T11:28:29;29.80;1.00
19805;DHT22;10062;51.052;13.756;2023-05-09T11:31:08;29.00;1.00
19805;DHT22;10062;51.052;13.756;2023-05-09T11:33:42;29.10;1.00
19805;DHT22;10062;51.052;13.756;2023-05-09T11:36:16;28.90;1.00
19805;DHT22;10062;51.052;13.756;2023-05-09T11:38:59;27.80;1.00
19805;DHT22;10062;51.052;13.756;2023-05-09T11:41:38;27.70;1.00
19805;DHT22;10062;51.052;13.756;2023-05-09T11:44:18;27.50;1.00
19805;DHT22;10062;51.052;13.756;2023-05-09T11:46:50;27.20;1.00
19805;DHT22;10062;51.052;13.756;2023-05-09T11:49:21;26.90;1.00
19805;DHT22;10062;51.052;13.756;2023-05-09T11:51:53;26.70;1.00
19805;DHT22;10062;51.052;13.756;2023-05-09T11:54:25;26.10;1.00
19805;DHT22;10062;51.052;13.756;2023-05-09T11:56:57;26.00;1.00
19805;DHT22;10062;51.052;13.756;2023-05-09T11:59:32;25.60;1.00
19805;DHT22;10062;51.052;13.756;2023-05-09T12:02:04;25.80;1.00
19805;DHT22;10062;51.052;13.756;2023-05-09T12:04:36;26.00;1.00
19805;DHT22;10062;51.052;13.756;2023-05-09T12:07:10;26.20;1.00
19805;DHT22;10062;51.052;13.756;2023-05-09T12:09:42;25.70;1.00
19805;DHT22;10062;51.052;13.756;2023-05-09T12:12:14;25.70;1.00
19805;DHT22;10062;51.052;13.756;2023-05-09T12:14:51;25.60;1.00
19805;DHT22;10062;51.052;13.756;2023-05-09T12:17:23;24.50;1.00
19805;DHT22;10062;51.052;13.756;2023-05-09T12:19:57;27.70;1.00
19805;DHT22;10062;51.052;13.756;2023-05-09T12:22:29;24.80;1.00
19805;DHT22;10062;51.052;13.756;2023-05-09T12:25:04;25.10;1.00
19805;DHT22;10062;51.052;13.756;2023-05-09T12:27:38;25.40;1.00
19805;DHT22;10062;51.052;13.756;2023-05-09T12:30:11;25.40;1.00
19805;DHT22;10062;51.052;13.756;2023-05-09T12:32:45;25.40;1.00
19805;DHT22;10062;51.052;13.756;2023-05-09T12:35:19;24.90;1.00
19805;DHT22;10062;51.052;13.756;2023-05-09T12:37:57;24.90;1.00
19805;DHT22;10062;51.052;13.756;2023-05-09T12:40:28;25.30;1.00
19805;DHT22;10062;51.052;13.756;2023-05-09T12:43:00;25.40;1.00
19805;DHT22;10062;51.052;13.756;2023-05-09T12:45:37;25.40;1.00
19805;DHT22;10062;51.052;13.756;2023-05-09T12:48:09;25.50;1.00
19805;DHT22;10062;51.052;13.756;2023-05-09T12:50:46;25.70;1.00
19805;DHT22;10062;51.052;13.756;2023-05-09T12:53:23;25.70;1.00
19805;DHT22;10062;51.052;13.756;2023-05-09T12:55:55;25.90;1.00
19805;DHT22;10062;51.052;13.756;2023-05-09T12:58:28;26.00;1.00
19805;DHT22;10062;51.052;13.756;2023-05-09T13:01:04;25.60;1.00
19805;DHT22;10062;51.052;13.756;2023-05-09T13:03:36;25.70;1.00
19805;DHT22;10062;51.052;13.756;2023-05-09T13:06:11;25.90;1.00
19805;DHT22;10062;51.052;13.756;2023-05-09T13:08:43;25.60;1.00
19805;DHT22;10062;51.052;13.756;2023-05-09T13:11:15;27.90;1.00
19805;DHT22;10062;51.052;13.756;2023-05-09T13:13:48;25.80;1.00
19805;DHT22;10062;51.052;13.756;2023-05-09T13:16:21;26.00;1.00
19805;DHT22;10062;51.052;13.756;2023-05-09T13:18:53;26.00;1.00
19805;DHT22;10062;51.052;13.756;2023-05-09T13:21:24;25.90;1.00
19805;DHT22;10062;51.052;13.756;2023-05-09T13:23:56;25.90;1.00
19805;DHT22;10062;51.052;13.756;2023-05-09T13:26:28;26.00;1.00
19805;DHT22;10062;51.052;13.756;2023-05-09T13:29:00;25.80;1.00
19805;DHT22;10062;51.052;13.756;2023-05-09T13:31:33;25.90;1.00
19805;DHT22;10062;51.052;13.756;2023-05-09T13:34:04;26.00;1.00
19805;DHT22;10062;51.052;13.756;2023-05-09T13:36:36;26.10;1.00
19805;DHT22;10062;51.052;13.756;2023-05-09T13:39:07;25.60;1.00
19805;DHT22;10062;51.052;13.756;2023-05-09T13:41:39;25.40;1.00
19805;DHT22;10062;51.052;13.756;2023-05-09T13:44:11;25.60;1.00
19805;DHT22;10062;51.052;13.756;2023-05-09T13:46:44;25.30;1.00
19805;DHT22;10062;51.052;13.756;2023-05-09T13:49:15;25.50;1.00
19805;DHT22;10062;51.052;13.756;2023-05-09T13:51:48;25.70;1.00
19805;DHT22;10062;51.052;13.756;2023-05-09T13:54:20;25.50;1.00
19805;DHT22;10062;51.052;13.756;2023-05-09T13:56:52;25.40;1.00
19805;DHT22;10062;51.052;13.756;2023-05-09T13:59:24;25.40;1.00
19805;DHT22;10062;51.052;13.756;2023-05-09T14:01:57;24.70;1.00
19805;DHT22;10062;51.052;13.756;2023-05-09T14:04:29;24.50;1.00
19805;DHT22;10062;51.052;13.756;2023-05-09T14:07:02;24.70;1.00
19805;DHT22;10062;51.052;13.756;2023-05-09T14:09:34;24.90;1.00
19805;DHT22;10062;51.052;13.756;2023-05-09T14:12:09;25.30;1.00
19805;DHT22;10062;51.052;13.756;2023-05-09T14:14:40;25.40;1.00
19805;DHT22;10062;51.052;13.756;2023-05-09T14:17:13;25.60;1.00
19805;DHT22;10062;51.052;13.756;2023-05-09T14:19:45;25.60;1.00
19805;DHT22;10062;51.052;13.756;2023-05-09T14:22:17;25.80;1.00
19805;DHT22;10062;51.052;13.756;2023-05-09T14:24:48;25.80;1.00
19805;DHT22;10062;51.052;13.756;2023-05-09T14:27:20;25.90;1.00
19805;DHT22;10062;51.052;13.756;2023-05-09T14:29:52;25.60;1.00
19805;DHT22;10062;51.052;13.756;2023-05-09T14:32:25;24.80;1.00
19805;DHT22;10062;51.052;13.756;2023-05-09T14:34:57;24.50;1.00
19805;DHT22;10062;51.052;13.756;2023-05-09T14:37:29;24.80;1.00
19805;DHT22;10062;51.052;13.756;2023-05-09T14:40:00;24.70;1.00
19805;DHT22;10062;51.052;13.756;2023-05-09T14:42:35;24.90;1.00
19805;DHT22;10062;51.052;13.756;2023-05-09T14:45:08;25.00;1.00
19805;DHT22;10062;51.052;13.756;2023-05-09T14:47:43;25.00;1.00
19805;DHT22;10062;51.052;13.756;2023-05-09T14:50:15;25.00;1.00
19805;DHT22;10062;51.052;13.756;2023-05-09T14:52:47;25.00;1.00
19805;DHT22;10062;51.052;13.756;2023-05-09T14:55:19;25.00;1.00
19805;DHT22;10062;51.052;13.756;2023-05-09T14:57:52;25.30;1.00
19805;DHT22;10062;51.052;13.756;2023-05-09T15:00:24;25.30;1.00
19805;DHT22;10062;51.052;13.756;2023-05-09T15:02:57;25.00;1.00
19805;DHT22;10062;51.052;13.756;2023-05-09T15:05:29;24.20;1.00
19805;DHT22;10062;51.052;13.756;2023-05-09T15:08:01;24.20;1.00
19805;DHT22;10062;51.052;13.756;2023-05-09T15:10:32;24.30;1.00
19805;DHT22;10062;51.052;13.756;2023-05-09T15:13:04;24.30;1.00
19805;DHT22;10062;51.052;13.756;2023-05-09T15:15:36;24.40;1.00
19805;DHT22;10062;51.052;13.756;2023-05-09T15:18:10;24.40;1.00
19805;DHT22;10062;51.052;13.756;2023-05-09T15:20:44;24.30;1.00
19805;DHT22;10062;51.052;13.756;2023-05-09T15:23:16;24.30;1.00
19805;DHT22;10062;51.052;13.756;2023-05-09T15:25:48;24.20;1.00
19805;DHT22;10062;51.052;13.756;2023-05-09T15:28:19;23.80;1.00
19805;DHT22;10062;51.052;13.756;2023-05-09T15:30:51;23.80;1.00
19805;DHT22;10062;51.052;13.756;2023-05-09T15:33:24;23.70;1.00
19805;DHT22;10062;51.052;13.756;2023-05-09T15:35:57;23.90;1.00
19805;DHT22;10062;51.052;13.756;2023-05-09T15:38:29;23.10;1.00
19805;DHT22;10062;51.052;13.756;2023-05-09T15:41:01;22.90;1.00
19805;DHT22;10062;51.052;13.756;2023-05-09T15:43:32;22.10;1.00
19805;DHT22;10062;51.052;13.756;2023-05-09T15:46:04;21.80;1.00
19805;DHT22;10062;51.052;13.756;2023-05-09T15:48:37;21.30;1.00
19805;DHT22;10062;51.052;13.756;2023-05-09T15:53:41;20.50;1.00
19805;DHT22;10062;51.052;13.756;2023-05-09T15:58:45;21.00;1.00
19805;DHT22;10062;51.052;13.756;2023-05-09T16:01:16;21.20;1.00
19805;DHT22;10062;51.052;13.756;2023-05-09T16:03:49;21.30;1.00
19805;DHT22;10062;51.052;13.756;2023-05-09T16:08:53;20.70;1.00
19805;DHT22;10062;51.052;13.756;2023-05-09T16:11:25;20.50;1.00
19805;DHT22;10062;51.052;13.756;2023-05-09T16:13:56;20.60;1.00
19805;DHT22;10062;51.052;13.756;2023-05-09T16:16:28;20.70;1.00
19805;DHT22;10062;51.052;13.756;2023-05-09T16:19:01;20.70;1.00
19805;DHT22;10062;51.052;13.756;2023-05-09T16:21:33;20.70;1.00
19805;DHT22;10062;51.052;13.756;2023-05-09T16:24:07;20.80;1.00
19805;DHT22;10062;51.052;13.756;2023-05-09T16:26:38;20.50;1.00
19805;DHT22;10062;51.052;13.756;2023-05-09T16:29:10;20.40;1.00
19805;DHT22;10062;51.052;13.756;2023-05-09T16:31:43;20.50;1.00
19805;DHT22;10062;51.052;13.756;2023-05-09T16:34:16;20.60;1.00
19805;DHT22;10062;51.052;13.756;2023-05-09T16:36:48;20.70;1.00
19805;DHT22;10062;51.052;13.756;2023-05-09T16:39:19;20.40;1.00
19805;DHT22;10062;51.052;13.756;2023-05-09T16:41:52;20.20;1.00
19805;DHT22;10062;51.052;13.756;2023-05-09T16:44:24;20.00;1.00
19805;DHT22;10062;51.052;13.756;2023-05-09T16:46:56;20.10;1.00
19805;DHT22;10062;51.052;13.756;2023-05-09T16:49:29;20.10;1.00
19805;DHT22;10062;51.052;13.756;2023-05-09T16:52:00;19.80;1.00
19805;DHT22;10062;51.052;13.756;2023-05-09T16:54:32;19.70;1.00
19805;DHT22;10062;51.052;13.756;2023-05-09T16:57:04;19.50;1.00
19805;DHT22;10062;51.052;13.756;2023-05-09T16:59:35;19.60;1.00
19805;DHT22;10062;51.052;13.756;2023-05-09T17:02:07;19.60;1.00
19805;DHT22;10062;51.052;13.756;2023-05-09T17:04:40;19.80;1.00
19805;DHT22;10062;51.052;13.756;2023-05-09T17:07:12;19.60;1.00
19805;DHT22;10062;51.052;13.756;2023-05-09T17:12:17;19.70;1.00
19805;DHT22;10062;51.052;13.756;2023-05-09T17:14:49;19.80;1.00
19805;DHT22;10062;51.052;13.756;2023-05-09T17:19:54;19.50;1.00
19805;DHT22;10062;51.052;13.756;2023-05-09T17:22:27;19.20;1.00
19805;DHT22;10062;51.052;13.756;2023-05-09T17:24:58;19.10;1.00
19805;DHT22;10062;51.052;13.756;2023-05-09T17:27:30;19.00;1.00
19805;DHT22;10062;51.052;13.756;2023-05-09T17:30:02;19.10;1.00
19805;DHT22;10062;51.052;13.756;2023-05-09T17:32:34;19.30;1.00
19805;DHT22;10062;51.052;13.756;2023-05-09T17:35:08;19.30;1.00
19805;DHT22;10062;51.052;13.756;2023-05-09T17:37:40;19.30;1.00
19805;DHT22;10062;51.052;13.756;2023-05-09T17:40:12;19.10;1.00
19805;DHT22;10062;51.052;13.756;2023-05-09T17:42:43;18.90;1.00
19805;DHT22;10062;51.052;13.756;2023-05-09T17:45:15;19.00;1.00
19805;DHT22;10062;51.052;13.756;2023-05-09T17:47:47;18.90;1.00
19805;DHT22;10062;51.052;13.756;2023-05-09T17:50:20;18.90;1.00
19805;DHT22;10062;51.052;13.756;2023-05-09T17:52:52;18.80;1.00
19805;DHT22;10062;51.052;13.756;2023-05-09T17:55:23;18.80;1.00